Terminal Aerodrome Forecast
Issued by NWS

Home | Current Version | Previous Version | Text Only | Print | Product List | Glossary On
Versions: 1 2 3 4 5 6 7 8 9 10 11 12 13 14
000
FTUS46 KHNX 281016 AAA
TAFMCE
TAF AMD
KMCE 281016Z 2810/2906 00000KT 4SM BR SCT200
      TEMPO 2810/2812 2SM BR
     FM281900 VRB03KT P6SM FEW150
     FM290200 00000KT 4SM HZ BR SKC=

USA.gov is the U.S. government's official web portal to all federal, state and local government web resources and services.